createdAt,value
2023-03-26T00:01:39.452Z,13.75
2023-03-26T00:04:48.867Z,13.75
2023-03-26T00:07:55.317Z,18.75
2023-03-26T00:11:01.003Z,14.50
2023-03-26T00:14:09.955Z,9.25
2023-03-26T00:17:17.280Z,14.50
2023-03-26T00:20:23.897Z,10.50
2023-03-26T00:23:31.104Z,14.75
2023-03-26T00:26:37.757Z,12.00
2023-03-26T00:29:44.964Z,31.25
2023-03-26T00:32:53.615Z,15.00
2023-03-26T00:36:03.894Z,18.25
2023-03-26T00:39:10.310Z,15.50
2023-03-26T00:42:16.088Z,14.00
2023-03-26T00:45:23.027Z,26.00
2023-03-26T00:48:44.645Z,26.50
2023-03-26T00:51:50.462Z,15.25
2023-03-26T00:54:57.578Z,14.00
2023-03-26T00:58:01.549Z,20.25
2023-03-26T01:01:09.202Z,23.25
2023-03-26T01:04:31.308Z,14.00
2023-03-26T01:07:37.135Z,18.00
2023-03-26T01:10:45.388Z,16.75
2023-03-26T01:13:52.934Z,28.25
2023-03-26T01:17:02.184Z,12.25
2023-03-26T01:20:15.504Z,11.50
2023-03-26T01:23:26.332Z,26.00
2023-03-26T01:27:11.428Z,14.50
2023-03-26T01:30:22.932Z,10.00
2023-03-26T01:33:37.944Z,32.75
2023-03-26T01:36:51.295Z,20.75
2023-03-26T01:40:07.428Z,25.25
2023-03-26T01:43:29.745Z,26.75
2023-03-26T01:46:37.080Z,20.00
2023-03-26T01:49:42.515Z,19.75
2023-03-26T01:53:14.469Z,28.00
2023-03-26T01:56:29.580Z,29.00
2023-03-26T02:00:08.402Z,28.25
2023-03-26T02:03:28.027Z,26.25
2023-03-26T02:06:40.720Z,12.25
2023-03-26T02:09:50.420Z,11.50
2023-03-26T02:12:57.893Z,13.00
2023-03-26T02:16:12.333Z,11.00
2023-03-26T02:19:21.785Z,17.75
2023-03-26T02:22:31.804Z,15.00
2023-03-26T02:25:40.230Z,16.00
2023-03-26T02:28:44.958Z,12.75
2023-03-26T02:31:51.913Z,14.50
2023-03-26T02:34:59.085Z,13.25
2023-03-26T02:38:04.221Z,10.50
2023-03-26T02:41:11.165Z,10.25
2023-03-26T02:44:33.317Z,8.00
2023-03-26T02:47:39.963Z,9.75
2023-03-26T02:51:08.164Z,11.00
2023-03-26T02:54:46.137Z,11.50
2023-03-26T02:58:02.165Z,11.00
2023-03-26T03:01:26.157Z,10.50
2023-03-26T03:04:44.610Z,3.00
2023-03-26T03:07:50.292Z,8.25
2023-03-26T03:11:11.671Z,10.00
2023-03-26T03:14:22.105Z,10.00
2023-03-26T03:17:27.425Z,10.00
2023-03-26T03:20:35.351Z,21.00
2023-03-26T03:23:39.679Z,31.75
2023-03-26T03:26:50.447Z,31.25
2023-03-26T03:30:14.996Z,24.25
2023-03-26T03:33:38.400Z,15.50
2023-03-26T03:36:48.852Z,18.75
2023-03-26T03:40:11.146Z,19.00
2023-03-26T03:43:17.980Z,17.25
2023-03-26T03:46:40.586Z,7.00
2023-03-26T03:49:49.221Z,22.25
2023-03-26T03:52:55.973Z,20.50
2023-03-26T03:56:02.160Z,7.00
2023-03-26T03:59:47.992Z,6.00
2023-03-26T04:02:56.891Z,8.50
2023-03-26T04:06:11.300Z,5.50
2023-03-26T04:09:25.189Z,16.50
2023-03-26T04:12:34.878Z,9.75
2023-03-26T04:15:42.175Z,9.50
2023-03-26T04:18:47.346Z,9.00
2023-03-26T04:22:05.383Z,6.00
2023-03-26T04:25:17.908Z,6.00
2023-03-26T04:28:33.130Z,11.25
2023-03-26T04:31:52.314Z,27.25
2023-03-26T04:35:05.601Z,11.50
2023-03-26T04:38:17.468Z,9.50
2023-03-26T04:41:33.896Z,10.75
2023-03-26T04:44:43.095Z,5.75
2023-03-26T04:47:54.476Z,7.00
2023-03-26T04:51:00.563Z,6.00
2023-03-26T04:54:20.546Z,46.50
2023-03-26T04:57:54.846Z,47.50
2023-03-26T05:02:24.130Z,32.25
2023-03-26T05:06:34.764Z,11.00
2023-03-26T05:09:52.060Z,35.00
2023-03-26T05:16:57.693Z,11.50
2023-03-26T05:20:30.427Z,9.00
2023-03-26T05:23:42.685Z,10.50
2023-03-26T05:27:04.201Z,7.50
2023-03-26T05:30:17.957Z,6.75
2023-03-26T05:33:27.519Z,10.75
2023-03-26T05:36:46.180Z,11.00
2023-03-26T05:40:20.915Z,15.25
2023-03-26T05:43:32.988Z,14.00
2023-03-26T05:46:53.088Z,34.75
2023-03-26T05:50:20.168Z,14.00
2023-03-26T05:53:28.111Z,13.25
2023-03-26T05:56:51.471Z,17.00
2023-03-26T06:00:16.502Z,25.75
2023-03-26T06:03:25.815Z,16.25
2023-03-26T06:06:46.987Z,19.00
2023-03-26T06:09:56.905Z,22.25
2023-03-26T06:13:03.819Z,20.75
2023-03-26T06:16:27.034Z,11.50
2023-03-26T06:19:59.438Z,14.75
2023-03-26T06:23:12.859Z,19.00
2023-03-26T06:26:42.453Z,21.25
2023-03-26T06:29:59.686Z,24.75
2023-03-26T06:33:26.131Z,20.00
2023-03-26T06:37:12.559Z,19.00
2023-03-26T06:40:53.073Z,28.00
2023-03-26T06:44:28.730Z,29.00
2023-03-26T06:47:52.701Z,29.50
2023-03-26T06:51:21.980Z,30.50
2023-03-26T06:54:46.242Z,30.00
2023-03-26T06:58:21.211Z,29.00
2023-03-26T07:01:49.412Z,30.75
2023-03-26T07:05:14.472Z,28.75
2023-03-26T07:08:38.120Z,29.00
2023-03-26T07:12:14.776Z,33.00
2023-03-26T07:15:46.149Z,18.25
2023-03-26T07:19:02.893Z,28.75
2023-03-26T07:22:18.641Z,29.00
2023-03-26T07:25:42.406Z,29.75
2023-03-26T07:29:31.776Z,29.00
2023-03-26T07:33:18.926Z,28.25
2023-03-26T07:37:16.063Z,27.50
2023-03-26T07:41:16.026Z,28.75
2023-03-26T07:45:02.088Z,83.33
2023-03-26T07:48:32.281Z,24.00
2023-03-26T07:52:03.161Z,26.50
2023-03-26T07:55:55.961Z,19.67
2023-03-26T07:59:31.574Z,20.00
2023-03-26T08:03:27.076Z,20.75
2023-03-26T08:06:38.532Z,26.25
2023-03-26T08:10:20.013Z,9.33
2023-03-26T08:13:41.516Z,3.00
2023-03-26T08:16:55.311Z,6.33
2023-03-26T08:20:28.758Z,8.33
2023-03-26T08:23:52.953Z,6.00
2023-03-26T08:27:17.361Z,8.00
2023-03-26T08:30:50.847Z,5.00
2023-03-26T08:34:02.568Z,21.00
2023-03-26T08:37:10.405Z,6.00
2023-03-26T08:40:42.989Z,3.00
2023-03-26T08:44:21.565Z,3.00
2023-03-26T08:52:54.440Z,9.50
2023-03-26T08:56:09.050Z,7.00
2023-03-26T09:00:06.591Z,0.00
2023-03-26T09:03:50.064Z,1.00
2023-03-26T09:07:34.436Z,11.00
2023-03-26T09:10:53.095Z,6.00
2023-03-26T09:14:43.282Z,22.00
2023-03-26T09:18:34.750Z,22.00
2023-03-26T09:22:38.436Z,0.67
2023-03-26T09:26:04.495Z,8.25
2023-03-26T09:29:54.632Z,3.00
2023-03-26T09:33:47.457Z,3.33
2023-03-26T09:37:05.953Z,4.00
2023-03-26T09:40:22.727Z,1.00
2023-03-26T09:44:21.861Z,1.00
2023-03-26T09:48:16.082Z,0.00
2023-03-26T09:51:48.706Z,1.00
2023-03-26T09:55:09.412Z,2.00
2023-03-26T09:58:41.034Z,0.00
2023-03-26T10:02:07.229Z,0.67
2023-03-26T10:05:48.094Z,0.67
2023-03-26T10:09:50.766Z,5.00
2023-03-26T10:13:23.067Z,35.25
2023-03-26T10:16:46.583Z,8.75
2023-03-26T10:20:09.855Z,10.25
2023-03-26T10:23:31.997Z,6.00
2023-03-26T10:27:09.385Z,4.00
2023-03-26T10:30:30.812Z,6.33
2023-03-26T10:33:49.990Z,1.00
2023-03-26T10:36:59.871Z,4.33
2023-03-26T10:40:19.818Z,2.00
2023-03-26T10:44:07.450Z,8.00
2023-03-26T10:48:13.916Z,15.50
2023-03-26T10:51:53.575Z,5.33
2023-03-26T10:55:12.197Z,0.67
2023-03-26T10:58:26.619Z,4.33
2023-03-26T11:01:41.816Z,5.00
2023-03-26T11:05:02.179Z,0.00
2023-03-26T11:08:19.103Z,1.00
2023-03-26T11:12:26.553Z,0.33
2023-03-26T11:15:50.288Z,4.00
2023-03-26T11:19:21.390Z,1.00
2023-03-26T11:22:43.118Z,0.00
2023-03-26T11:26:11.483Z,0.00
2023-03-26T11:29:40.477Z,2.00
2023-03-26T11:32:59.067Z,1.00
2023-03-26T11:41:06.388Z,11.25
2023-03-26T11:45:17.864Z,1.33
2023-03-26T11:48:34.344Z,3.00
2023-03-26T11:51:52.349Z,1.00
2023-03-26T11:55:15.161Z,4.00
2023-03-26T11:58:31.441Z,2.00
2023-03-26T12:01:56.634Z,0.00
2023-03-26T12:05:24.894Z,1.00
2023-03-26T12:08:38.485Z,1.00
2023-03-26T12:15:46.796Z,3.00
2023-03-26T12:19:17.000Z,6.33
2023-03-26T12:23:41.701Z,0.00
2023-03-26T12:26:57.024Z,0.00
2023-03-26T12:30:31.038Z,1.00
2023-03-26T12:33:45.352Z,0.00
2023-03-26T12:37:00.329Z,32.00
2023-03-26T12:40:29.492Z,2.00
2023-03-26T12:44:50.661Z,1.00
2023-03-26T12:47:58.100Z,2.00
2023-03-26T12:51:02.168Z,0.00
2023-03-26T12:54:23.872Z,0.00
2023-03-26T12:57:40.725Z,2.00
2023-03-26T13:00:59.684Z,0.00
2023-03-26T13:04:35.617Z,3.67
2023-03-26T13:07:58.077Z,0.00
2023-03-26T13:11:13.115Z,0.00
2023-03-26T13:15:00.236Z,1.00
2023-03-26T13:18:37.395Z,0.00
2023-03-26T13:22:01.583Z,0.00
2023-03-26T13:25:29.063Z,0.00
2023-03-26T13:28:54.794Z,1.00
2023-03-26T13:36:19.320Z,0.00
2023-03-26T13:39:40.499Z,5.67
2023-03-26T13:43:14.269Z,0.00
2023-03-26T13:46:49.919Z,0.00
2023-03-26T13:50:10.214Z,7.50
2023-03-26T13:53:50.646Z,0.00
2023-03-26T13:58:14.206Z,2.00
2023-03-26T14:01:48.134Z,0.00
2023-03-26T14:04:58.554Z,0.00
2023-03-26T14:08:13.482Z,0.33
2023-03-26T14:11:24.573Z,0.33
2023-03-26T14:14:49.560Z,1.00
2023-03-26T14:18:13.121Z,0.00
2023-03-26T14:21:55.368Z,6.33
2023-03-26T14:25:27.801Z,11.67
2023-03-26T14:30:02.211Z,1.00
2023-03-26T14:33:50.160Z,2.00
2023-03-26T14:37:29.661Z,1.67
2023-03-26T14:40:59.978Z,0.00
2023-03-26T14:45:10.142Z,8.25
2023-03-26T14:48:51.169Z,2.67
2023-03-26T14:52:18.066Z,3.67
2023-03-26T14:56:20.480Z,0.67
2023-03-26T15:00:50.700Z,3.00
2023-03-26T15:04:51.784Z,3.00
2023-03-26T15:08:40.694Z,1.00
2023-03-26T15:12:12.960Z,3.00
2023-03-26T15:15:54.293Z,9.00
2023-03-26T15:19:46.105Z,3.00
2023-03-26T15:23:30.867Z,3.00
2023-03-26T15:27:39.734Z,2.00
2023-03-26T15:31:40.851Z,3.33
2023-03-26T15:35:34.024Z,4.00
2023-03-26T15:39:15.039Z,2.00
2023-03-26T15:42:33.032Z,2.00
2023-03-26T15:45:41.250Z,2.00
2023-03-26T15:48:58.123Z,2.00
2023-03-26T15:52:21.772Z,2.33
2023-03-26T15:55:36.853Z,9.00
2023-03-26T15:59:00.551Z,9.25
2023-03-26T16:02:27.432Z,4.50
2023-03-26T16:05:45.366Z,5.75
2023-03-26T16:09:05.369Z,6.00
2023-03-26T16:12:32.284Z,6.00
2023-03-26T16:15:41.196Z,2.00
2023-03-26T16:19:16.401Z,4.50
2023-03-26T16:22:46.576Z,6.00
2023-03-26T16:26:11.060Z,18.50
2023-03-26T16:29:25.928Z,6.50
2023-03-26T16:32:36.960Z,3.00
2023-03-26T16:36:50.604Z,8.50
2023-03-26T16:41:14.552Z,6.00
2023-03-26T16:45:16.385Z,6.00
2023-03-26T16:49:25.033Z,12.50
2023-03-26T16:53:03.716Z,13.00
2023-03-26T16:56:17.935Z,23.75
2023-03-26T16:59:40.370Z,31.25
2023-03-26T17:03:00.002Z,23.25
2023-03-26T17:06:44.147Z,18.00
2023-03-26T17:10:17.798Z,10.00
2023-03-26T17:13:32.331Z,13.00
2023-03-26T17:16:49.739Z,6.25
2023-03-26T17:20:35.655Z,13.00
2023-03-26T17:24:33.788Z,12.00
2023-03-26T17:28:50.031Z,6.25
2023-03-26T17:32:49.521Z,17.00
2023-03-26T17:41:11.310Z,15.00
2023-03-26T17:45:22.796Z,25.75
2023-03-26T17:49:37.923Z,17.00
2023-03-26T17:53:40.193Z,8.25
2023-03-26T17:57:56.638Z,24.00
2023-03-26T18:01:28.999Z,22.00
2023-03-26T18:04:39.096Z,9.50
2023-03-26T18:08:12.576Z,10.50
2023-03-26T18:11:45.762Z,3.00
2023-03-26T18:15:13.565Z,11.00
2023-03-26T18:18:22.866Z,20.25
2023-03-26T18:21:36.170Z,31.75
2023-03-26T18:24:43.623Z,30.50
2023-03-26T18:31:39.606Z,33.50
2023-03-26T18:35:27.849Z,36.75
2023-03-26T18:39:42.541Z,36.50
2023-03-26T18:43:03.051Z,51.75
2023-03-26T18:46:34.531Z,85.67
2023-03-26T18:54:10.582Z,6.00
2023-03-26T18:57:23.460Z,31.00
2023-03-26T19:00:53.415Z,39.00
2023-03-26T19:04:32.601Z,29.00
2023-03-26T19:08:30.448Z,34.75
2023-03-26T19:12:11.819Z,38.00
2023-03-26T19:16:06.516Z,33.75
2023-03-26T19:20:02.914Z,40.00
2023-03-26T19:28:00.512Z,28.00
2023-03-26T19:33:13.566Z,40.00
2023-03-26T19:50:42.414Z,25.75
2023-03-26T19:54:59.007Z,54.00
2023-03-26T20:02:56.748Z,33.00
2023-03-26T20:07:15.145Z,40.00
2023-03-26T20:11:07.328Z,41.00
2023-03-26T20:15:05.653Z,38.75
2023-03-26T20:28:02.670Z,36.75
2023-03-26T20:31:52.121Z,37.00
2023-03-26T20:40:48.363Z,28.25
2023-03-26T20:45:10.829Z,22.00
2023-03-26T20:50:22.781Z,34.00
2023-03-26T20:54:02.903Z,27.75
2023-03-26T20:57:56.913Z,35.75
2023-03-26T21:01:12.248Z,23.50
2023-03-26T21:05:09.550Z,35.25
2023-03-26T21:08:54.485Z,30.25
2023-03-26T21:12:50.170Z,37.00
2023-03-26T21:16:46.682Z,21.00
2023-03-26T21:20:47.886Z,34.50
2023-03-26T21:25:09.146Z,19.25
2023-03-26T21:33:26.097Z,15.25
2023-03-26T21:37:21.586Z,21.50
2023-03-26T21:41:13.196Z,24.00
2023-03-26T21:45:53.958Z,29.00
2023-03-26T21:49:35.097Z,31.25
2023-03-26T21:53:58.035Z,29.00
2023-03-26T22:06:32.449Z,40.25
2023-03-26T22:10:23.352Z,29.00
2023-03-26T22:13:44.883Z,54.67
2023-03-26T22:17:22.084Z,35.50
2023-03-26T22:21:41.934Z,24.25
2023-03-26T22:25:36.169Z,28.00
2023-03-26T22:29:44.744Z,26.00
2023-03-26T22:33:45.071Z,26.75
2023-03-26T22:37:32.886Z,40.50
2023-03-26T22:41:51.452Z,35.50
2023-03-26T22:45:32.793Z,23.25
2023-03-26T22:50:00.359Z,29.25
2023-03-26T22:53:56.945Z,28.00
2023-03-26T22:58:19.438Z,22.00
2023-03-26T23:02:38.361Z,22.25
2023-03-26T23:06:52.175Z,33.00
2023-03-26T23:11:18.665Z,26.50
2023-03-26T23:14:45.419Z,27.00
2023-03-26T23:18:47.900Z,27.00
2023-03-26T23:22:38.794Z,31.25
2023-03-26T23:26:07.330Z,33.00
2023-03-26T23:29:29.431Z,13.50
2023-03-26T23:33:22.668Z,24.00
2023-03-26T23:37:16.978Z,32.50
2023-03-26T23:41:23.979Z,27.25
2023-03-26T23:45:00.054Z,22.00
2023-03-26T23:48:34.229Z,17.75
2023-03-26T23:57:52.986Z,19.75
